Dades meteomassalio
Diari Summary for Gener 1, 2018 Units:  English    Metric   Both
« Previous Day
Next Day »
Diari Semanal Mensual Anual Personalitzat
  Maxima: Minima: Mijana:
Temperatura: TemperatureC °F 2.8 °F 10.3 °F
Rosada: DewpointC °F -4.4 °F 0.6 °F
Humitat: Humidity % 30 % 52 %
Velocitat del vent: WindSpeedKMH mph 9.7 mph 26.6 mph
Racha vent: WindSpeedGustKMH mph - -
Vent:- - NW
Pressio: PressurehPa in 1027.0 in -
Pluja: 0.0 in    
Historical Graphs
 
 
Tabular Data for Gener 1, 2018
Time Temperature Dew Point Pressure Wind Wind Speed Wind Gust Humidity Rainfall Rate (Hourly) solar Conditions
TemperatureC °F DewpointC °F PressurehPa in Calm     Humidity % HourlyPrecipMM in SolarRadiationWatts/m^2 W/m2 Conditions
00:04 8.3 °F 3.6 °F 1028.3 in NNW 25.9 mph 25.9 mph 72 % 0.0 in 0.0 W/m2 CLR
00:07 8.3 °F 3.8 °F 1028.3 in NW 35.2 mph 35.2 mph 73 % 0.0 in 0.0 W/m2 CLR
00:09 8.3 °F 3.8 °F 1028.3 in NNW 38.9 mph 38.9 mph 73 % 0.0 in 0.0 W/m2 CLR
00:14 8.3 °F 3.8 °F 1028.7 in NNW 35.2 mph 35.2 mph 73 % 0.0 in 0.0 W/m2 CLR
00:15 8.3 °F 3.8 °F 1028.7 in North 35.2 mph 35.2 mph 73 % 0.0 in 0.0 W/m2 CLR
00:19 8.3 °F 3.8 °F 1028.7 in North 29.6 mph 29.6 mph 73 % 0.0 in 0.0 W/m2 CLR
00:20 8.3 °F 3.8 °F 1028.7 in NW 31.5 mph 31.5 mph 73 % 0.0 in 0.0 W/m2 CLR
00:25 8.3 °F 3.8 °F 1028.7 in NNW 37.0 mph 37.0 mph 73 % 0.0 in 0.0 W/m2 CLR
00:26 8.3 °F 3.8 °F 1028.3 in NW 37.0 mph 37.0 mph 73 % 0.0 in 0.0 W/m2 CLR
00:31 8.3 °F 3.8 °F 1028.7 in NW 27.4 mph 27.4 mph 73 % 0.0 in 0.0 W/m2 CLR
00:35 8.3 °F 3.8 °F 1028.3 in NNW 31.5 mph 31.5 mph 73 % 0.0 in 0.0 W/m2 CLR
00:37 8.3 °F 3.8 °F 1028.7 in NNW 27.4 mph 27.4 mph 73 % 0.0 in 0.0 W/m2 CLR
00:42 8.3 °F 3.8 °F 1028.3 in NW 20.4 mph 20.4 mph 73 % 0.0 in 0.0 W/m2 CLR
00:43 8.3 °F 3.8 °F 1028.3 in WNW 20.4 mph 20.4 mph 73 % 0.0 in 0.0 W/m2 CLR
00:48 7.8 °F 3.4 °F 1028.7 in NW 29.6 mph 29.6 mph 74 % 0.0 in 0.0 W/m2 CLR
00:49 7.8 °F 3.4 °F 1028.7 in NW 31.5 mph 31.5 mph 74 % 0.0 in 0.0 W/m2 CLR
00:53 7.8 °F 3.4 °F 1028.3 in NW 33.3 mph 33.3 mph 74 % 0.0 in 0.0 W/m2 CLR
00:54 7.8 °F 3.4 °F 1028.7 in NW 30.6 mph 30.6 mph 74 % 0.0 in 0.0 W/m2 CLR
00:59 7.8 °F 3.4 °F 1028.7 in NNW 31.5 mph 31.5 mph 74 % 0.0 in 0.0 W/m2 CLR
01:00 7.8 °F 3.4 °F 1028.7 in NNW 31.5 mph 31.5 mph 74 % 0.0 in 0.0 W/m2 CLR
01:02 7.8 °F 3.4 °F 1028.7 in NNW 25.9 mph 25.9 mph 74 % 0.0 in 0.0 W/m2 CLR
01:05 7.8 °F 3.4 °F 1028.7 in NW 22.5 mph 22.5 mph 74 % 0.0 in 0.0 W/m2 CLR
01:07 7.8 °F 3.4 °F 1028.7 in WNW 22.2 mph 22.2 mph 74 % 0.0 in 0.0 W/m2 CLR
01:10 7.8 °F 3.4 °F 1028.7 in NW 27.4 mph 27.4 mph 74 % 0.0 in 0.0 W/m2 CLR
01:15 7.8 °F 3.4 °F 1028.7 in NNW 31.5 mph 31.5 mph 74 % 0.0 in 0.0 W/m2 CLR
01:16 7.8 °F 3.4 °F 1028.7 in NNW 29.6 mph 29.6 mph 74 % 0.0 in 0.0 W/m2 CLR
01:21 7.8 °F 3.2 °F 1029.0 in NNW 35.2 mph 35.2 mph 73 % 0.0 in 0.0 W/m2 CLR
01:23 7.8 °F 3.2 °F 1028.7 in NNW 25.9 mph 25.9 mph 73 % 0.0 in 0.0 W/m2 CLR
01:28 8.3 °F 3.8 °F 1028.7 in NW 29.6 mph 29.6 mph 73 % 0.0 in 0.0 W/m2 CLR
01:33 8.3 °F 3.6 °F 1028.7 in NNW 31.5 mph 31.5 mph 72 % 0.0 in 0.0 W/m2 CLR
01:38 8.3 °F 3.8 °F 1028.7 in NW 29.6 mph 29.6 mph 73 % 0.0 in 0.0 W/m2 CLR
01:43 8.3 °F 3.8 °F 1028.7 in NNW 22.2 mph 22.2 mph 73 % 0.0 in 0.0 W/m2 CLR
01:44 8.3 °F 3.8 °F 1028.7 in NW 22.2 mph 22.2 mph 73 % 0.0 in 0.0 W/m2 CLR
01:49 7.8 °F 3.2 °F 1029.0 in North 29.6 mph 29.6 mph 73 % 0.0 in 0.0 W/m2 CLR
01:51 7.8 °F 3.2 °F 1029.0 in NNW 20.9 mph 20.9 mph 73 % 0.0 in 0.0 W/m2 CLR
01:52 7.8 °F 3.2 °F 1029.0 in NW 20.4 mph 20.4 mph 73 % 0.0 in 0.0 W/m2 CLR
01:56 7.8 °F 3.2 °F 1029.0 in NNW 24.1 mph 24.1 mph 73 % 0.0 in 0.0 W/m2 CLR
01:58 7.8 °F 3.2 °F 1028.7 in NW 18.5 mph 18.5 mph 73 % 0.0 in 0.0 W/m2 CLR
02:01 7.8 °F 3.2 °F 1029.0 in North 25.7 mph 25.7 mph 73 % 0.0 in 0.0 W/m2 CLR
02:06 7.8 °F 3.2 °F 1029.0 in North 31.5 mph 31.5 mph 73 % 0.0 in 0.0 W/m2 CLR
02:07 7.8 °F 3.2 °F 1029.0 in NNW 25.9 mph 25.9 mph 73 % 0.0 in 0.0 W/m2 CLR
02:11 7.8 °F 3.2 °F 1029.0 in NW 22.2 mph 22.2 mph 73 % 0.0 in 0.0 W/m2 CLR
02:15 7.8 °F 3.2 °F 1029.0 in NNW 25.7 mph 25.7 mph 73 % 0.0 in 0.0 W/m2 CLR
02:16 7.8 °F 3.2 °F 1029.3 in NW 25.9 mph 25.9 mph 73 % 0.0 in 0.0 W/m2 CLR
02:20 7.8 °F 2.8 °F 1029.3 in NNW 29.6 mph 29.6 mph 71 % 0.0 in 0.0 W/m2 CLR
02:22 7.8 °F 2.7 °F 1029.3 in NNW 29.6 mph 29.6 mph 70 % 0.0 in 0.0 W/m2 CLR
02:26 7.8 °F 2.4 °F 1029.3 in NW 35.2 mph 35.2 mph 69 % 0.0 in 0.0 W/m2 CLR
02:31 7.8 °F 1.8 °F 1029.3 in NW 33.3 mph 33.3 mph 66 % 0.0 in 0.0 W/m2 CLR
02:32 7.8 °F 1.8 °F 1029.3 in NNW 37.0 mph 37.0 mph 66 % 0.0 in 0.0 W/m2 CLR
02:37 7.8 °F 1.4 °F 1029.3 in NW 33.3 mph 33.3 mph 64 % 0.0 in 0.0 W/m2 CLR
02:38 7.8 °F 1.4 °F 1029.3 in North 32.2 mph 32.2 mph 64 % 0.0 in 0.0 W/m2 CLR
02:39 7.8 °F 1.4 °F 1029.3 in North 35.2 mph 35.2 mph 64 % 0.0 in 0.0 W/m2 CLR
02:44 7.8 °F 1.2 °F 1029.7 in NNW 31.5 mph 31.5 mph 63 % 0.0 in 0.0 W/m2 CLR
02:45 7.8 °F 1.2 °F 1029.7 in NW 35.2 mph 35.2 mph 63 % 0.0 in 0.0 W/m2 CLR
02:50 7.8 °F 0.9 °F 1029.7 in NW 40.7 mph 40.7 mph 62 % 0.0 in 0.0 W/m2 CLR
02:51 7.8 °F 0.9 °F 1029.7 in NW 35.2 mph 35.2 mph 62 % 0.0 in 0.0 W/m2 CLR
02:56 7.8 °F 0.7 °F 1029.7 in NNW 40.2 mph 40.2 mph 61 % 0.0 in 0.0 W/m2 CLR
02:59 7.2 °F -0.1 °F 1029.7 in NNW 42.6 mph 42.6 mph 60 % 0.0 in 0.0 W/m2 CLR
03:02 7.2 °F -0.1 °F 1029.7 in North 33.3 mph 33.3 mph 60 % 0.0 in 0.0 W/m2 CLR
03:05 7.2 °F -0.1 °F 1029.7 in NNW 30.6 mph 30.6 mph 60 % 0.0 in 0.0 W/m2 CLR
03:08 7.2 °F -0.1 °F 1029.7 in NW 31.5 mph 31.5 mph 60 % 0.0 in 0.0 W/m2 CLR
03:10 7.2 °F -0.1 °F 1029.7 in NNW 25.9 mph 25.9 mph 60 % 0.0 in 0.0 W/m2 CLR
03:14 7.2 °F -0.1 °F 1030.0 in NW 31.5 mph 31.5 mph 60 % 0.0 in 0.0 W/m2 CLR
03:17 7.2 °F -0.1 °F 1030.0 in NW 33.3 mph 33.3 mph 60 % 0.0 in 0.0 W/m2 CLR
03:20 7.2 °F -0.3 °F 1030.0 in NW 42.6 mph 42.6 mph 59 % 0.0 in 0.0 W/m2 CLR
03:25 7.2 °F -0.3 °F 1030.0 in NNW 35.2 mph 35.2 mph 59 % 0.0 in 0.0 W/m2 CLR
03:26 7.2 °F -0.3 °F 1030.0 in North 37.0 mph 37.0 mph 59 % 0.0 in 0.0 W/m2 CLR
03:31 7.2 °F -0.3 °F 1030.0 in NW 25.9 mph 25.9 mph 59 % 0.0 in 0.0 W/m2 CLR
03:36 7.2 °F -0.3 °F 1030.0 in NW 32.2 mph 32.2 mph 59 % 0.0 in 0.0 W/m2 CLR
03:37 7.2 °F -0.3 °F 1030.0 in NNW 31.5 mph 31.5 mph 59 % 0.0 in 0.0 W/m2 CLR
03:42 7.2 °F -0.3 °F 1030.0 in NW 31.5 mph 31.5 mph 59 % 0.0 in 0.0 W/m2 CLR
03:46 7.2 °F -0.3 °F 1030.0 in NNW 37.0 mph 37.0 mph 59 % 0.0 in 0.0 W/m2 CLR
03:48 7.2 °F -0.3 °F 1030.0 in NW 33.3 mph 33.3 mph 59 % 0.0 in 0.0 W/m2 CLR
03:53 7.2 °F -0.3 °F 1030.0 in NNW 44.4 mph 44.4 mph 59 % 0.0 in 0.0 W/m2 CLR
03:54 7.2 °F -0.3 °F 1030.0 in NW 33.3 mph 33.3 mph 59 % 0.0 in 0.0 W/m2 CLR
03:59 7.2 °F -0.3 °F 1030.0 in NNW 31.5 mph 31.5 mph 59 % 0.0 in 0.0 W/m2 CLR
04:01 7.2 °F -0.3 °F 1030.0 in NNW 38.9 mph 38.9 mph 59 % 0.0 in 0.0 W/m2 CLR
04:05 7.2 °F -0.3 °F 1030.0 in NW 33.3 mph 33.3 mph 59 % 0.0 in 0.0 W/m2 CLR
04:10 7.2 °F -0.3 °F 1030.0 in NW 31.5 mph 31.5 mph 59 % 0.0 in 0.0 W/m2 CLR
04:14 6.7 °F -0.8 °F 1030.0 in NNW 31.5 mph 31.5 mph 59 % 0.0 in 0.0 W/m2 CLR
04:19 6.7 °F -0.8 °F 1030.0 in NW 31.5 mph 31.5 mph 59 % 0.0 in 0.0 W/m2 CLR
04:24 6.7 °F -0.6 °F 1030.4 in NW 35.2 mph 35.2 mph 60 % 0.0 in 0.0 W/m2 CLR
04:27 6.7 °F -0.6 °F 1030.4 in NW 29.6 mph 29.6 mph 60 % 0.0 in 0.0 W/m2 CLR
04:32 7.2 °F -0.3 °F 1030.4 in NW 35.2 mph 35.2 mph 59 % 0.0 in 0.0 W/m2 CLR
04:33 7.2 °F -0.3 °F 1030.4 in North 31.5 mph 31.5 mph 59 % 0.0 in 0.0 W/m2 CLR
04:38 7.2 °F -0.1 °F 1030.4 in North 32.2 mph 32.2 mph 60 % 0.0 in 0.0 W/m2 CLR
04:39 7.2 °F -0.1 °F 1030.4 in NNW 38.9 mph 38.9 mph 60 % 0.0 in 0.0 W/m2 CLR
04:44 7.2 °F -0.1 °F 1030.4 in NNW 35.4 mph 35.4 mph 60 % 0.0 in 0.0 W/m2 CLR
04:48 7.2 °F -0.1 °F 1030.4 in NNW 33.3 mph 33.3 mph 60 % 0.0 in 0.0 W/m2 CLR
04:53 6.7 °F -0.6 °F 1030.4 in NNW 33.8 mph 33.8 mph 60 % 0.0 in 0.0 W/m2 CLR
04:54 6.7 °F -0.6 °F 1030.4 in NW 33.3 mph 33.3 mph 60 % 0.0 in 0.0 W/m2 CLR
04:56 6.7 °F -0.6 °F 1030.4 in WNW 38.9 mph 38.9 mph 60 % 0.0 in 0.0 W/m2 CLR
05:00 6.7 °F -0.6 °F 1030.4 in NNW 38.9 mph 38.9 mph 60 % 0.0 in 0.0 W/m2 CLR
05:01 6.7 °F -0.6 °F 1030.4 in NNW 38.9 mph 38.9 mph 60 % 0.0 in 0.0 W/m2 CLR
05:06 6.7 °F -0.6 °F 1030.0 in NW 33.3 mph 33.3 mph 60 % 0.0 in 0.0 W/m2 CLR
05:11 6.7 °F -0.6 °F 1030.4 in NNW 31.5 mph 31.5 mph 60 % 0.0 in 0.0 W/m2 CLR
05:12 6.7 °F -0.6 °F 1030.4 in NW 29.0 mph 29.0 mph 60 % 0.0 in 0.0 W/m2 CLR
05:17 6.7 °F -0.6 °F 1030.4 in NW 29.6 mph 29.6 mph 60 % 0.0 in 0.0 W/m2 CLR
05:19 6.7 °F -0.6 °F 1030.4 in NW 31.5 mph 31.5 mph 60 % 0.0 in 0.0 W/m2 CLR
05:21 6.7 °F -0.6 °F 1030.4 in NW 27.8 mph 27.8 mph 60 % 0.0 in 0.0 W/m2 CLR
05:25 6.7 °F -0.6 °F 1030.4 in West 27.8 mph 27.8 mph 60 % 0.0 in 0.0 W/m2 CLR
05:29 6.7 °F -0.6 °F 1030.7 in NW 25.9 mph 25.9 mph 60 % 0.0 in 0.0 W/m2 CLR
05:31 6.7 °F -0.6 °F 1030.7 in NW 29.6 mph 29.6 mph 60 % 0.0 in 0.0 W/m2 CLR
05:34 6.7 °F -0.6 °F 1030.7 in NW 27.8 mph 27.8 mph 60 % 0.0 in 0.0 W/m2 CLR
05:37 6.7 °F -0.6 °F 1030.7 in NW 24.1 mph 24.1 mph 60 % 0.0 in 0.0 W/m2 CLR
05:42 6.7 °F -0.6 °F 1030.7 in NW 18.5 mph 18.5 mph 60 % 0.0 in 0.0 W/m2 CLR
05:43 6.7 °F -0.6 °F 1030.7 in NW 16.7 mph 16.7 mph 60 % 0.0 in 0.0 W/m2 CLR
05:47 6.1 °F -1.1 °F 1031.0 in West 11.1 mph 11.1 mph 60 % 0.0 in 0.0 W/m2 CLR
05:49 6.1 °F -1.1 °F 1031.0 in NW 16.7 mph 16.7 mph 60 % 0.0 in 0.0 W/m2 CLR
05:54 6.1 °F -0.8 °F 1030.7 in NW 20.4 mph 20.4 mph 61 % 0.0 in 0.0 W/m2 CLR
05:55 6.1 °F -0.8 °F 1031.0 in WNW 20.4 mph 20.4 mph 61 % 0.0 in 0.0 W/m2 CLR
05:57 6.1 °F -0.8 °F 1031.0 in WNW 16.7 mph 16.7 mph 61 % 0.0 in 0.0 W/m2 CLR
06:01 6.1 °F -0.8 °F 1031.0 in NW 18.5 mph 18.5 mph 61 % 0.0 in 0.0 W/m2 CLR
06:06 6.1 °F -1.1 °F 1031.0 in WNW 22.5 mph 22.5 mph 60 % 0.0 in 0.0 W/m2 CLR
06:09 6.1 °F -1.1 °F 1031.4 in WNW 19.3 mph 19.3 mph 60 % 0.0 in 0.0 W/m2 CLR
06:14 6.1 °F -1.1 °F 1031.4 in NW 22.2 mph 22.2 mph 60 % 0.0 in 0.0 W/m2 CLR
06:16 6.1 °F -1.1 °F 1031.4 in NW 22.2 mph 22.2 mph 60 % 0.0 in 0.0 W/m2 CLR
06:19 6.1 °F -1.1 °F 1031.4 in NNW 24.1 mph 24.1 mph 60 % 0.0 in 0.0 W/m2 CLR
06:21 6.1 °F -1.1 °F 1031.4 in NW 24.1 mph 24.1 mph 60 % 0.0 in 0.0 W/m2 CLR
06:26 6.1 °F -1.1 °F 1031.4 in NW 22.2 mph 22.2 mph 60 % 0.0 in 0.0 W/m2 CLR
06:27 6.1 °F -1.1 °F 1031.4 in NW 20.4 mph 20.4 mph 60 % 0.0 in 0.0 W/m2 CLR
06:32 6.1 °F -1.3 °F 1031.4 in NW 20.4 mph 20.4 mph 59 % 0.0 in 0.0 W/m2 CLR
06:33 6.1 °F -1.3 °F 1031.7 in NNW 18.5 mph 18.5 mph 59 % 0.0 in 0.0 W/m2 CLR
06:38 5.6 °F -1.8 °F 1031.7 in NW 18.5 mph 18.5 mph 59 % 0.0 in 0.0 W/m2 CLR
06:41 5.6 °F -1.8 °F 1031.7 in NW 18.5 mph 18.5 mph 59 % 0.0 in 0.0 W/m2 CLR
06:44 5.6 °F -1.6 °F 1031.7 in NW 16.7 mph 16.7 mph 60 % 0.0 in 0.0 W/m2 CLR
06:49 5.6 °F -1.6 °F 1032.1 in NW 14.8 mph 14.8 mph 60 % 0.0 in 0.0 W/m2 CLR
06:50 5.6 °F -1.6 °F 1031.7 in NNW 14.8 mph 14.8 mph 60 % 0.0 in 0.0 W/m2 CLR
06:53 5.6 °F -1.6 °F 1031.7 in NNW 20.4 mph 20.4 mph 60 % 0.0 in 0.0 W/m2 CLR
06:55 5.6 °F -1.6 °F 1031.7 in NW 18.5 mph 18.5 mph 60 % 0.0 in 0.0 W/m2 CLR
07:00 5.6 °F -1.8 °F 1031.7 in NW 17.7 mph 17.7 mph 59 % 0.0 in 0.0 W/m2 CLR
07:01 5.6 °F -1.8 °F 1031.7 in WNW 18.5 mph 18.5 mph 59 % 0.0 in 0.0 W/m2 CLR
07:06 6.1 °F -1.3 °F 1031.7 in NW 18.5 mph 18.5 mph 59 % 0.0 in 0.0 W/m2 CLR
07:07 6.1 °F -1.3 °F 1031.7 in NW 18.5 mph 18.5 mph 59 % 0.0 in 0.0 W/m2 CLR
07:09 6.1 °F -1.3 °F 1031.7 in WNW 16.7 mph 16.7 mph 59 % 0.0 in 0.0 W/m2 CLR
07:13 5.6 °F -1.8 °F 1031.7 in NW 18.5 mph 18.5 mph 59 % 0.0 in 0.0 W/m2 CLR
07:14 5.6 °F -1.8 °F 1031.7 in WNW 16.7 mph 16.7 mph 59 % 0.0 in 0.0 W/m2 CLR
07:18 5.6 °F -1.6 °F 1031.7 in NW 18.5 mph 18.5 mph 60 % 0.0 in 0.0 W/m2 CLR
07:23 5.6 °F -1.6 °F 1031.7 in WNW 18.5 mph 18.5 mph 60 % 0.0 in 0.0 W/m2 CLR
07:24 5.0 °F -2.3 °F 1032.1 in WNW 14.8 mph 14.8 mph 59 % 0.0 in 0.0 W/m2 CLR
07:29 5.6 °F -1.6 °F 1032.1 in West 11.1 mph 11.1 mph 60 % 0.0 in 0.0 W/m2 CLR
07:34 5.6 °F -1.4 °F 1032.1 in West 18.5 mph 18.5 mph 61 % 0.0 in 0.0 W/m2 CLR
07:36 5.6 °F -1.4 °F 1032.1 in West 20.9 mph 20.9 mph 61 % 0.0 in 0.0 W/m2 CLR
07:41 5.6 °F -1.2 °F 1032.4 in West 20.4 mph 20.4 mph 62 % 0.0 in 0.0 W/m2 CLR
07:43 5.6 °F -1.2 °F 1032.4 in WNW 20.4 mph 20.4 mph 62 % 0.0 in 0.0 W/m2 CLR
07:48 5.0 °F -1.4 °F 1032.7 in West 16.7 mph 16.7 mph 63 % 0.0 in 0.0 W/m2 CLR
07:49 5.0 °F -1.4 °F 1032.7 in WNW 14.8 mph 14.8 mph 63 % 0.0 in 0.0 W/m2 CLR
07:54 5.0 °F -1.4 °F 1032.7 in NW 14.8 mph 14.8 mph 63 % 0.0 in 0.0 W/m2 CLR
07:55 5.0 °F -1.4 °F 1032.7 in WNW 18.5 mph 18.5 mph 63 % 0.0 in 0.0 W/m2 CLR
07:59 5.0 °F -1.3 °F 1032.7 in WNW 18.5 mph 18.5 mph 64 % 0.0 in 0.0 W/m2 CLR
08:04 3.9 °F -2.5 °F 1032.7 in NW 18.5 mph 18.5 mph 63 % 0.0 in 0.0 W/m2 CLR
08:06 3.3 °F -3.3 °F 1032.7 in WNW 20.4 mph 20.4 mph 62 % 0.0 in 0.0 W/m2 CLR
08:10 3.3 °F -3.5 °F 1032.7 in WNW 18.5 mph 18.5 mph 61 % 0.0 in 0.0 W/m2 CLR
08:15 3.3 °F -3.5 °F 1032.7 in WNW 18.5 mph 18.5 mph 61 % 0.0 in 0.0 W/m2 OVC
08:16 3.3 °F -3.5 °F 1032.7 in WNW 18.5 mph 18.5 mph 61 % 0.0 in 0.0 W/m2 OVC
08:21 2.8 °F -4.2 °F 1032.7 in NW 24.1 mph 24.1 mph 60 % 0.0 in 0.0 W/m2 OVC
08:22 2.8 °F -4.2 °F 1032.7 in WNW 22.2 mph 22.2 mph 60 % 0.0 in 0.0 W/m2 OVC
08:24 2.8 °F -4.4 °F 1032.7 in WNW 24.1 mph 24.1 mph 59 % 0.0 in 5.0 W/m2 OVC
08:27 3.3 °F -3.9 °F 1032.7 in WNW 24.1 mph 24.1 mph 59 % 0.0 in 7.0 W/m2 OVC
08:32 3.3 °F -4.2 °F 1032.7 in NW 24.1 mph 24.1 mph 58 % 0.0 in 9.0 W/m2 BKN
08:37 4.4 °F -3.3 °F 1033.1 in NW 22.2 mph 22.2 mph 57 % 0.0 in 11.0 W/m2 BKN
08:38 4.4 °F -3.3 °F 1032.7 in NW 24.1 mph 24.1 mph 57 % 0.0 in 12.0 W/m2 BKN
08:42 5.0 °F -3.1 °F 1033.1 in WNW 22.5 mph 22.5 mph 56 % 0.0 in 14.0 W/m2 BKN
08:44 5.0 °F -3.1 °F 1033.1 in NW 31.5 mph 31.5 mph 56 % 0.0 in 14.0 W/m2 BKN
08:48 5.6 °F -2.6 °F 1033.1 in NW 24.1 mph 24.1 mph 56 % 0.0 in 16.0 W/m2 BKN
08:49 5.6 °F -2.6 °F 1033.1 in NW 20.4 mph 20.4 mph 56 % 0.0 in 18.0 W/m2 BKN
08:54 6.1 °F -2.0 °F 1033.1 in WNW 22.2 mph 22.2 mph 56 % 0.0 in 21.0 W/m2 BKN
08:59 6.1 °F -2.0 °F 1033.1 in WNW 17.7 mph 17.7 mph 56 % 0.0 in 26.0 W/m2 BKN
09:01 6.1 °F -2.0 °F 1033.1 in WNW 18.5 mph 18.5 mph 56 % 0.0 in 30.0 W/m2 BKN
09:05 6.1 °F -2.0 °F 1033.1 in NW 19.3 mph 19.3 mph 56 % 0.0 in 30.0 W/m2 BKN
09:09 6.1 °F -2.3 °F 1033.1 in NW 18.5 mph 18.5 mph 55 % 0.0 in 40.0 W/m2 BKN
09:13 6.1 °F -2.3 °F 1032.7 in NW 20.4 mph 20.4 mph 55 % 0.0 in 47.0 W/m2 SCT
09:18 6.1 °F -2.3 °F 1033.1 in WNW 14.8 mph 14.8 mph 55 % 0.0 in 54.0 W/m2 SCT
09:23 6.1 °F -2.3 °F 1033.1 in NW 9.7 mph 9.7 mph 55 % 0.0 in 65.0 W/m2 SCT
09:24 6.1 °F -2.3 °F 1033.1 in NNW 11.1 mph 11.1 mph 55 % 0.0 in 72.0 W/m2 SCT
09:26 6.1 °F -2.3 °F 1033.1 in NW 11.1 mph 11.1 mph 55 % 0.0 in 54.0 W/m2 SCT
09:31 5.6 °F -2.8 °F 1033.1 in WNW 14.8 mph 14.8 mph 55 % 0.0 in 53.0 W/m2 SCT
09:33 5.6 °F -2.8 °F 1033.1 in NW 14.8 mph 14.8 mph 55 % 0.0 in 56.0 W/m2 SCT
09:38 5.0 °F -3.3 °F 1033.1 in NW 14.8 mph 14.8 mph 55 % 0.0 in 93.0 W/m2 FEW
09:39 5.0 °F -3.3 °F 1033.1 in WNW 14.8 mph 14.8 mph 55 % 0.0 in 93.0 W/m2 FEW
09:41 5.0 °F -3.3 °F 1033.1 in WNW 17.7 mph 17.7 mph 55 % 0.0 in 111.0 W/m2 FEW
09:44 5.0 °F -3.3 °F 1032.7 in NW 18.5 mph 18.5 mph 55 % 0.0 in 84.0 W/m2 CLR
09:47 5.0 °F -3.3 °F 1032.7 in WNW 16.7 mph 16.7 mph 55 % 0.0 in 139.0 W/m2 CLR
09:52 5.0 °F -3.6 °F 1033.1 in WNW 18.5 mph 18.5 mph 54 % 0.0 in 153.0 W/m2 CLR
09:57 5.6 °F -3.1 °F 1033.1 in NW 18.5 mph 18.5 mph 54 % 0.0 in 171.0 W/m2 CLR
09:58 5.6 °F -3.1 °F 1033.1 in WNW 18.5 mph 18.5 mph 54 % 0.0 in 171.0 W/m2 CLR
10:00 6.7 °F -2.2 °F 1033.1 in NW 18.5 mph 18.5 mph 53 % 0.0 in 174.0 W/m2 CLR
10:01 6.7 °F -2.0 °F 1033.1 in NW 22.5 mph 22.5 mph 54 % 0.0 in 178.0 W/m2 CLR
10:06 7.8 °F -1.2 °F 1033.1 in WNW 18.5 mph 18.5 mph 53 % 0.0 in 181.0 W/m2 CLR
10:10 8.3 °F -0.7 °F 1033.1 in WNW 22.2 mph 22.2 mph 53 % 0.0 in 118.0 W/m2 CLR
10:12 8.3 °F -0.9 °F 1033.1 in NW 24.1 mph 24.1 mph 52 % 0.0 in 153.0 W/m2 CLR
10:17 8.3 °F -0.9 °F 1033.1 in NW 22.2 mph 22.2 mph 52 % 0.0 in 128.0 W/m2 CLR
10:19 8.9 °F -0.4 °F 1033.1 in NW 18.5 mph 18.5 mph 52 % 0.0 in 155.0 W/m2 CLR
10:20 8.9 °F -0.4 °F 1033.1 in WNW 18.5 mph 18.5 mph 52 % 0.0 in 176.0 W/m2 CLR
10:25 8.9 °F -0.7 °F 1033.1 in NW 20.4 mph 20.4 mph 51 % 0.0 in 244.0 W/m2 CLR
10:26 8.9 °F -0.7 °F 1033.1 in NW 20.4 mph 20.4 mph 51 % 0.0 in 248.0 W/m2 CLR
10:28 8.9 °F -0.7 °F 1032.7 in WNW 25.9 mph 25.9 mph 51 % 0.0 in 253.0 W/m2 CLR
10:32 8.9 °F -1.0 °F 1033.1 in NW 18.5 mph 18.5 mph 50 % 0.0 in 262.0 W/m2 CLR
10:33 8.9 °F -1.0 °F 1033.1 in WNW 22.2 mph 22.2 mph 50 % 0.0 in 267.0 W/m2 CLR
10:38 9.4 °F -0.7 °F 1033.1 in WNW 24.1 mph 24.1 mph 49 % 0.0 in 276.0 W/m2 CLR
10:41 9.4 °F -0.7 °F 1033.1 in NW 25.9 mph 25.9 mph 49 % 0.0 in 279.0 W/m2 CLR
10:46 10.0 °F -0.5 °F 1033.1 in WNW 18.5 mph 18.5 mph 48 % 0.0 in 290.0 W/m2 CLR
10:47 10.0 °F -0.5 °F 1033.1 in NW 18.5 mph 18.5 mph 48 % 0.0 in 292.0 W/m2 CLR
10:50 10.0 °F -0.5 °F 1033.1 in NW 24.1 mph 24.1 mph 48 % 0.0 in 299.0 W/m2 CLR
10:53 10.0 °F -0.8 °F 1033.1 in WNW 22.2 mph 22.2 mph 47 % 0.0 in 306.0 W/m2 CLR
10:58 10.6 °F 0.0 °F 1032.7 in NW 18.5 mph 18.5 mph 48 % 0.0 in 315.0 W/m2 CLR
10:59 10.6 °F 0.0 °F 1032.7 in NW 18.5 mph 18.5 mph 48 % 0.0 in 316.0 W/m2 CLR
11:04 10.6 °F -0.6 °F 1032.7 in WNW 29.6 mph 29.6 mph 46 % 0.0 in 325.0 W/m2 CLR
11:09 10.6 °F -0.6 °F 1032.4 in West 20.4 mph 20.4 mph 46 % 0.0 in 338.0 W/m2 CLR
11:10 10.6 °F -0.6 °F 1032.4 in WNW 20.4 mph 20.4 mph 46 % 0.0 in 339.0 W/m2 CLR
11:15 10.6 °F -0.9 °F 1032.4 in NW 18.5 mph 18.5 mph 45 % 0.0 in 346.0 W/m2 CLR
11:16 10.6 °F -0.9 °F 1032.4 in NW 14.8 mph 14.8 mph 45 % 0.0 in 348.0 W/m2 CLR
11:21 10.6 °F -0.9 °F 1032.4 in WNW 20.4 mph 20.4 mph 45 % 0.0 in 355.0 W/m2 CLR
11:22 10.6 °F -1.2 °F 1032.4 in WNW 18.5 mph 18.5 mph 44 % 0.0 in 357.0 W/m2 CLR
11:23 10.6 °F -0.9 °F 1032.4 in WNW 14.8 mph 14.8 mph 45 % 0.0 in 359.0 W/m2 CLR
11:28 11.1 °F -0.4 °F 1032.1 in West 16.7 mph 16.7 mph 45 % 0.0 in 366.0 W/m2 CLR
11:29 11.1 °F -0.4 °F 1032.1 in WNW 16.7 mph 16.7 mph 45 % 0.0 in 366.0 W/m2 CLR
11:34 11.1 °F -1.0 °F 1032.1 in NW 20.4 mph 20.4 mph 43 % 0.0 in 374.0 W/m2 CLR
11:37 11.1 °F -1.0 °F 1032.1 in NNW 19.3 mph 19.3 mph 43 % 0.0 in 378.0 W/m2 CLR
11:40 11.1 °F -1.0 °F 1031.7 in NW 14.8 mph 14.8 mph 43 % 0.0 in 381.0 W/m2 CLR
11:43 11.1 °F -1.3 °F 1031.7 in West 24.1 mph 24.1 mph 42 % 0.0 in 385.0 W/m2 CLR
11:48 11.7 °F -0.8 °F 1031.4 in WNW 13.0 mph 13.0 mph 42 % 0.0 in 390.0 W/m2 CLR
11:49 11.7 °F -1.2 °F 1031.4 in WNW 16.7 mph 16.7 mph 41 % 0.0 in 392.0 W/m2 CLR
11:50 11.7 °F -1.2 °F 1031.4 in NW 18.5 mph 18.5 mph 41 % 0.0 in 394.0 W/m2 CLR
11:55 11.7 °F -1.5 °F 1031.4 in WNW 24.1 mph 24.1 mph 40 % 0.0 in 399.0 W/m2 CLR
11:56 11.7 °F -1.5 °F 1031.4 in NNW 24.1 mph 24.1 mph 40 % 0.0 in 399.0 W/m2 CLR
12:01 12.2 °F -1.7 °F 1031.4 in WNW 29.6 mph 29.6 mph 38 % 0.0 in 404.0 W/m2 CLR
12:06 12.2 °F -1.7 °F 1031.0 in WNW 20.4 mph 20.4 mph 38 % 0.0 in 408.0 W/m2 CLR
12:07 12.2 °F -1.3 °F 1031.0 in NNW 24.1 mph 24.1 mph 39 % 0.0 in 411.0 W/m2 CLR
12:12 12.8 °F -1.2 °F 1031.0 in NW 20.4 mph 20.4 mph 38 % 0.0 in 413.0 W/m2 CLR
12:17 12.8 °F -0.8 °F 1031.0 in NNW 18.5 mph 18.5 mph 39 % 0.0 in 417.0 W/m2 CLR
12:21 12.8 °F -1.2 °F 1031.0 in NNW 20.4 mph 20.4 mph 38 % 0.0 in 418.0 W/m2 CLR
12:26 12.8 °F -1.2 °F 1030.7 in WNW 19.3 mph 19.3 mph 38 % 0.0 in 422.0 W/m2 CLR
12:30 12.8 °F -1.6 °F 1030.7 in NW 20.4 mph 20.4 mph 37 % 0.0 in 424.0 W/m2 CLR
12:31 12.8 °F -1.6 °F 1030.7 in WNW 16.7 mph 16.7 mph 37 % 0.0 in 424.0 W/m2 CLR
12:36 12.8 °F -1.2 °F 1030.4 in North 16.1 mph 16.1 mph 38 % 0.0 in 427.0 W/m2 CLR
12:37 12.8 °F -0.8 °F 1030.4 in NW 16.7 mph 16.7 mph 39 % 0.0 in 427.0 W/m2 CLR
12:42 12.8 °F -1.6 °F 1030.0 in NW 18.5 mph 18.5 mph 37 % 0.0 in 429.0 W/m2 CLR
12:43 12.8 °F -1.6 °F 1030.0 in NNW 16.7 mph 16.7 mph 37 % 0.0 in 429.0 W/m2 CLR
12:48 13.3 °F -1.4 °F 1030.0 in North 16.7 mph 16.7 mph 36 % 0.0 in 431.0 W/m2 CLR
12:53 13.3 °F -1.4 °F 1030.0 in NW 27.8 mph 27.8 mph 36 % 0.0 in 431.0 W/m2 CLR
12:57 13.3 °F -1.4 °F 1030.0 in NNW 22.2 mph 22.2 mph 36 % 0.0 in 432.0 W/m2 CLR
13:02 13.3 °F -1.4 °F 1030.0 in NW 20.4 mph 20.4 mph 36 % 0.0 in 432.0 W/m2 CLR
13:05 13.9 °F -0.9 °F 1030.0 in NNW 22.2 mph 22.2 mph 36 % 0.0 in 432.0 W/m2 CLR
13:08 13.9 °F -0.9 °F 1029.7 in North 24.1 mph 24.1 mph 36 % 0.0 in 431.0 W/m2 CLR
13:10 13.9 °F -0.9 °F 1029.7 in NNW 18.5 mph 18.5 mph 36 % 0.0 in 432.0 W/m2 CLR
13:15 13.9 °F -1.3 °F 1029.7 in North 27.8 mph 27.8 mph 35 % 0.0 in 432.0 W/m2 CLR
13:16 13.9 °F -1.3 °F 1029.7 in North 27.8 mph 27.8 mph 35 % 0.0 in 432.0 W/m2 CLR
13:21 13.9 °F -1.3 °F 1029.7 in North 20.4 mph 20.4 mph 35 % 0.0 in 431.0 W/m2 CLR
13:25 13.9 °F -1.3 °F 1029.7 in NNE 29.6 mph 29.6 mph 35 % 0.0 in 431.0 W/m2 CLR
13:26 13.9 °F -1.3 °F 1029.7 in North 22.2 mph 22.2 mph 35 % 0.0 in 431.0 W/m2 CLR
13:30 13.9 °F -0.9 °F 1029.7 in NW 24.1 mph 24.1 mph 36 % 0.0 in 432.0 W/m2 CLR
13:35 13.9 °F -0.9 °F 1029.3 in NNW 29.6 mph 29.6 mph 36 % 0.0 in 459.0 W/m2 CLR
13:36 13.9 °F -0.9 °F 1029.3 in NW 29.6 mph 29.6 mph 36 % 0.0 in 473.0 W/m2 CLR
13:41 13.9 °F -0.6 °F 1029.3 in NNW 18.5 mph 18.5 mph 37 % 0.0 in 374.0 W/m2 CLR
13:44 13.3 °F -1.4 °F 1029.3 in North 29.6 mph 29.6 mph 36 % 0.0 in 427.0 W/m2 CLR
13:47 13.9 °F -0.9 °F 1029.3 in NNW 20.4 mph 20.4 mph 36 % 0.0 in 431.0 W/m2 CLR
13:52 13.9 °F -0.9 °F 1029.0 in NW 27.8 mph 27.8 mph 36 % 0.0 in 418.0 W/m2 CLR
13:55 14.4 °F -0.1 °F 1029.0 in North 18.5 mph 18.5 mph 37 % 0.0 in 413.0 W/m2 CLR
13:57 14.4 °F -0.4 °F 1029.0 in NNE 24.1 mph 24.1 mph 36 % 0.0 in 410.0 W/m2 CLR
14:02 14.4 °F -0.4 °F 1028.7 in North 31.5 mph 31.5 mph 36 % 0.0 in 404.0 W/m2 CLR
14:04 14.4 °F -0.8 °F 1028.7 in NNW 22.2 mph 22.2 mph 35 % 0.0 in 404.0 W/m2 CLR
14:05 14.4 °F -0.8 °F 1028.7 in NW 24.1 mph 24.1 mph 35 % 0.0 in 404.0 W/m2 CLR
14:10 14.4 °F -0.4 °F 1028.7 in NNW 22.2 mph 22.2 mph 36 % 0.0 in 401.0 W/m2 CLR
14:11 14.4 °F -0.4 °F 1028.7 in NNW 18.5 mph 18.5 mph 36 % 0.0 in 399.0 W/m2 CLR
14:16 14.4 °F -0.4 °F 1028.3 in North 24.1 mph 24.1 mph 36 % 0.0 in 396.0 W/m2 CLR
14:21 14.4 °F -0.4 °F 1028.3 in North 27.8 mph 27.8 mph 36 % 0.0 in 390.0 W/m2 CLR
14:22 14.4 °F -0.4 °F 1028.7 in NNW 27.8 mph 27.8 mph 36 % 0.0 in 390.0 W/m2 CLR
14:27 14.4 °F -0.4 °F 1028.3 in NW 19.3 mph 19.3 mph 36 % 0.0 in 394.0 W/m2 CLR
14:29 14.4 °F -0.8 °F 1028.7 in North 19.3 mph 19.3 mph 35 % 0.0 in 392.0 W/m2 CLR
14:33 14.4 °F -0.8 °F 1028.7 in NW 22.2 mph 22.2 mph 35 % 0.0 in 380.0 W/m2 CLR
14:34 15.0 °F -0.3 °F 1028.7 in NNW 27.4 mph 27.4 mph 35 % 0.0 in 376.0 W/m2 CLR
14:35 15.0 °F -0.3 °F 1028.7 in NNW 27.8 mph 27.8 mph 35 % 0.0 in 376.0 W/m2 CLR
14:40 15.0 °F -0.8 °F 1028.3 in North 24.1 mph 24.1 mph 34 % 0.0 in 367.0 W/m2 CLR
14:43 15.0 °F -1.2 °F 1028.3 in NNW 31.5 mph 31.5 mph 33 % 0.0 in 373.0 W/m2 CLR
14:48 15.6 °F -1.6 °F 1028.0 in NNW 33.8 mph 33.8 mph 31 % 0.0 in 385.0 W/m2 CLR
14:53 15.6 °F -2.0 °F 1028.0 in NNE 35.2 mph 35.2 mph 30 % 0.0 in 388.0 W/m2 CLR
14:55 15.6 °F -2.0 °F 1028.0 in NNW 46.3 mph 46.3 mph 30 % 0.0 in 399.0 W/m2 CLR
15:00 15.6 °F -2.0 °F 1028.0 in North 42.6 mph 42.6 mph 30 % 0.0 in 218.0 W/m2 CLR
15:01 15.6 °F -2.0 °F 1028.0 in North 43.4 mph 43.4 mph 30 % 0.0 in 188.0 W/m2 CLR
15:02 15.0 °F -2.4 °F 1028.0 in NNW 42.6 mph 42.6 mph 30 % 0.0 in 255.0 W/m2 CLR
15:07 15.0 °F -2.0 °F 1028.0 in NNE 29.6 mph 29.6 mph 31 % 0.0 in 250.0 W/m2 CLR
15:08 15.0 °F -2.0 °F 1028.0 in NNE 25.9 mph 25.9 mph 31 % 0.0 in 223.0 W/m2 CLR
15:12 15.0 °F -2.0 °F 1028.3 in North 25.7 mph 25.7 mph 31 % 0.0 in 243.0 W/m2 CLR
15:13 15.0 °F -2.0 °F 1028.0 in NNE 31.5 mph 31.5 mph 31 % 0.0 in 258.0 W/m2 CLR
15:18 15.0 °F -2.4 °F 1028.0 in NNW 33.3 mph 33.3 mph 30 % 0.0 in 163.0 W/m2 CLR
15:19 15.0 °F -2.4 °F 1028.0 in NNW 35.4 mph 35.4 mph 30 % 0.0 in 162.0 W/m2 CLR
15:24 15.0 °F -2.4 °F 1027.7 in NW 44.4 mph 44.4 mph 30 % 0.0 in 174.0 W/m2 CLR
15:29 15.0 °F -2.4 °F 1027.7 in NNW 42.6 mph 42.6 mph 30 % 0.0 in 197.0 W/m2 CLR
15:34 15.0 °F -2.4 °F 1027.7 in NW 38.9 mph 38.9 mph 30 % 0.0 in 218.0 W/m2 CLR
15:35 15.0 °F -2.4 °F 1027.7 in NW 38.9 mph 38.9 mph 30 % 0.0 in 188.0 W/m2 CLR
15:40 15.0 °F -2.4 °F 1027.3 in NNW 35.4 mph 35.4 mph 30 % 0.0 in 111.0 W/m2 CLR
15:42 15.0 °F -2.4 °F 1027.7 in NW 42.6 mph 42.6 mph 30 % 0.0 in 265.0 W/m2 CLR
15:45 15.0 °F -2.0 °F 1027.7 in NW 29.6 mph 29.6 mph 31 % 0.0 in 258.0 W/m2 CLR
15:47 15.0 °F -2.0 °F 1028.0 in NNW 22.2 mph 22.2 mph 31 % 0.0 in 172.0 W/m2 CLR
15:50 15.0 °F -2.0 °F 1028.0 in NNW 25.9 mph 25.9 mph 31 % 0.0 in 246.0 W/m2 CLR
15:54 15.0 °F -2.0 °F 1028.0 in NW 29.6 mph 29.6 mph 31 % 0.0 in 234.0 W/m2 CLR
15:59 15.0 °F -1.6 °F 1028.0 in NNW 20.9 mph 20.9 mph 32 % 0.0 in 234.0 W/m2 CLR
16:03 15.0 °F -1.2 °F 1027.7 in NNW 42.6 mph 42.6 mph 33 % 0.0 in 209.0 W/m2 CLR
16:05 15.0 °F -1.2 °F 1027.7 in NW 31.5 mph 31.5 mph 33 % 0.0 in 195.0 W/m2 CLR
16:10 15.0 °F -0.8 °F 1027.7 in NW 32.2 mph 32.2 mph 34 % 0.0 in 146.0 W/m2 CLR
16:11 15.0 °F -0.3 °F 1027.7 in NNW 31.5 mph 31.5 mph 35 % 0.0 in 123.0 W/m2 CLR
16:12 15.0 °F -0.3 °F 1027.7 in North 33.3 mph 33.3 mph 35 % 0.0 in 121.0 W/m2 CLR
16:17 14.4 °F -0.4 °F 1027.7 in NW 33.3 mph 33.3 mph 36 % 0.0 in 79.0 W/m2 CLR
16:18 14.4 °F -0.4 °F 1027.7 in NW 33.3 mph 33.3 mph 36 % 0.0 in 88.0 W/m2 CLR
16:23 14.4 °F 0.3 °F 1028.0 in NNW 44.4 mph 44.4 mph 38 % 0.0 in 120.0 W/m2 CLR
16:24 14.4 °F 0.3 °F 1028.0 in NNE 31.5 mph 31.5 mph 38 % 0.0 in 120.0 W/m2 CLR
16:29 14.4 °F 0.7 °F 1028.0 in NNW 43.4 mph 43.4 mph 39 % 0.0 in 40.0 W/m2 CLR
16:35 14.4 °F 1.0 °F 1028.0 in NW 33.3 mph 33.3 mph 40 % 0.0 in 88.0 W/m2 SCT
16:37 14.4 °F 1.0 °F 1028.0 in NNW 44.4 mph 44.4 mph 40 % 0.0 in 84.0 W/m2 SCT
16:42 14.4 °F 1.0 °F 1027.7 in NNW 35.4 mph 35.4 mph 40 % 0.0 in 69.0 W/m2 FEW
16:47 14.4 °F 1.0 °F 1028.0 in NW 33.3 mph 33.3 mph 40 % 0.0 in 69.0 W/m2 SCT
16:48 14.4 °F 1.3 °F 1028.0 in NW 33.3 mph 33.3 mph 41 % 0.0 in 79.0 W/m2 FEW
16:53 14.4 °F 1.3 °F 1028.0 in NW 27.8 mph 27.8 mph 41 % 0.0 in 62.0 W/m2 FEW
16:54 14.4 °F 1.3 °F 1028.0 in NW 31.5 mph 31.5 mph 41 % 0.0 in 40.0 W/m2 BKN
16:58 14.4 °F 1.3 °F 1028.0 in WNW 27.4 mph 27.4 mph 41 % 0.0 in 60.0 W/m2 SCT
17:00 14.4 °F 1.7 °F 1028.3 in NW 31.5 mph 31.5 mph 42 % 0.0 in 65.0 W/m2 SCT
17:04 13.9 °F 1.2 °F 1028.0 in NNW 31.5 mph 31.5 mph 42 % 0.0 in 60.0 W/m2 SCT
17:09 13.9 °F 1.2 °F 1027.7 in NW 38.9 mph 38.9 mph 42 % 0.0 in 19.0 W/m2 BKN
17:14 13.9 °F 1.2 °F 1027.7 in WNW 25.9 mph 30.1 mph 42 % 0.0 in 30.0 W/m2 BKN
17:16 13.9 °F 1.2 °F 1027.7 in NW 24.1 mph 24.1 mph 42 % 0.0 in 33.0 W/m2 BKN
17:21 13.9 °F 0.8 °F 1027.3 in NW 31.5 mph 31.5 mph 41 % 0.0 in 32.0 W/m2 BKN
17:22 13.9 °F 0.8 °F 1027.3 in NW 24.1 mph 24.1 mph 41 % 0.0 in 30.0 W/m2 BKN
17:27 13.9 °F 0.5 °F 1027.3 in WNW 29.6 mph 29.6 mph 40 % 0.0 in 14.0 W/m2 BKN
17:28 13.9 °F 0.5 °F 1027.0 in WNW 33.8 mph 33.8 mph 40 % 0.0 in 11.0 W/m2 BKN
17:33 13.3 °F 0.3 °F 1027.0 in NW 35.2 mph 35.2 mph 41 % 0.0 in 7.0 W/m2 BKN
17:35 13.3 °F 0.3 °F 1027.0 in WNW 29.6 mph 29.6 mph 41 % 0.0 in 5.0 W/m2 BKN
17:38 13.3 °F 0.3 °F 1027.0 in NW 31.5 mph 31.5 mph 41 % 0.0 in 5.0 W/m2 OVC
17:41 13.3 °F 0.3 °F 1027.0 in NW 27.8 mph 27.8 mph 41 % 0.0 in 0.0 W/m2 OVC
17:43 13.3 °F 0.7 °F 1027.0 in West 35.2 mph 35.2 mph 42 % 0.0 in 0.0 W/m2 OVC
17:48 13.3 °F 0.7 °F 1027.0 in NW 27.8 mph 27.8 mph 42 % 0.0 in 0.0 W/m2 OVC
17:50 13.3 °F 0.7 °F 1027.0 in WNW 30.6 mph 30.6 mph 42 % 0.0 in 0.0 W/m2 OVC
17:55 13.3 °F 1.0 °F 1027.0 in WNW 27.4 mph 27.4 mph 43 % 0.0 in 0.0 W/m2 CLR
17:57 13.3 °F 1.0 °F 1027.0 in WNW 33.3 mph 33.3 mph 43 % 0.0 in 0.0 W/m2 CLR
17:59 13.3 °F 1.0 °F 1027.0 in WNW 31.5 mph 31.5 mph 43 % 0.0 in 0.0 W/m2 CLR
18:03 13.3 °F 1.3 °F 1027.0 in NW 31.5 mph 31.5 mph 44 % 0.0 in 0.0 W/m2 CLR
18:08 12.8 °F 0.8 °F 1027.0 in WNW 27.8 mph 27.8 mph 44 % 0.0 in 0.0 W/m2 CLR
18:09 12.8 °F 0.8 °F 1027.3 in WNW 27.8 mph 27.8 mph 44 % 0.0 in 0.0 W/m2 CLR
18:13 12.8 °F 0.8 °F 1027.3 in NW 24.1 mph 24.1 mph 44 % 0.0 in 0.0 W/m2 CLR
18:16 12.8 °F 1.1 °F 1027.3 in NW 24.1 mph 24.1 mph 45 % 0.0 in 0.0 W/m2 CLR
18:19 12.8 °F 1.1 °F 1027.3 in WNW 24.1 mph 24.1 mph 45 % 0.0 in 0.0 W/m2 CLR
18:21 12.8 °F 1.1 °F 1027.3 in NW 29.6 mph 29.6 mph 45 % 0.0 in 0.0 W/m2 CLR
18:26 12.8 °F 1.1 °F 1027.3 in WNW 20.9 mph 20.9 mph 45 % 0.0 in 0.0 W/m2 CLR
18:31 12.8 °F 1.4 °F 1027.3 in WNW 37.0 mph 37.0 mph 46 % 0.0 in 0.0 W/m2 CLR
18:37 12.8 °F 1.4 °F 1027.3 in NW 33.3 mph 33.3 mph 46 % 0.0 in 0.0 W/m2 CLR
18:39 12.8 °F 1.4 °F 1027.3 in NW 33.3 mph 33.3 mph 46 % 0.0 in 0.0 W/m2 CLR
18:42 12.8 °F 1.4 °F 1027.3 in NW 24.1 mph 24.1 mph 46 % 0.0 in 0.0 W/m2 CLR
18:45 13.3 °F 2.2 °F 1027.3 in NW 44.4 mph 44.4 mph 47 % 0.0 in 0.0 W/m2 CLR
18:50 13.3 °F 1.9 °F 1027.3 in NW 35.2 mph 35.2 mph 46 % 0.0 in 0.0 W/m2 CLR
18:54 13.3 °F 1.9 °F 1027.3 in NW 35.4 mph 35.4 mph 46 % 0.0 in 0.0 W/m2 CLR
18:58 13.3 °F 1.9 °F 1027.3 in WNW 48.1 mph 48.1 mph 46 % 0.0 in 0.0 W/m2 CLR
18:59 13.3 °F 1.9 °F 1027.7 in WNW 37.0 mph 37.0 mph 46 % 0.0 in 0.0 W/m2 CLR
19:04 13.3 °F 1.9 °F 1027.7 in WNW 41.8 mph 41.8 mph 46 % 0.0 in 0.0 W/m2 CLR
19:09 13.3 °F 1.9 °F 1027.3 in West 35.4 mph 35.4 mph 46 % 0.0 in 0.0 W/m2 CLR
19:14 13.9 °F 2.4 °F 1027.3 in WNW 37.0 mph 37.0 mph 46 % 0.0 in 0.0 W/m2 CLR
19:15 13.9 °F 2.4 °F 1027.3 in NW 33.3 mph 33.3 mph 46 % 0.0 in 0.0 W/m2 CLR
19:20 13.9 °F 2.8 °F 1027.7 in WNW 22.5 mph 22.5 mph 47 % 0.0 in 0.0 W/m2 CLR
19:21 13.9 °F 2.8 °F 1027.3 in WNW 29.6 mph 29.6 mph 47 % 0.0 in 0.0 W/m2 CLR
19:26 13.3 °F 2.2 °F 1027.3 in WNW 31.5 mph 31.5 mph 47 % 0.0 in 0.0 W/m2 CLR
19:30 13.3 °F 2.2 °F 1027.7 in NW 29.6 mph 29.6 mph 47 % 0.0 in 0.0 W/m2 CLR
19:32 13.3 °F 2.2 °F 1027.7 in WNW 25.9 mph 25.9 mph 47 % 0.0 in 0.0 W/m2 CLR
19:35 13.9 °F 2.8 °F 1027.7 in WNW 31.5 mph 31.5 mph 47 % 0.0 in 0.0 W/m2 CLR
19:40 13.3 °F 2.2 °F 1027.7 in WNW 29.6 mph 29.6 mph 47 % 0.0 in 0.0 W/m2 CLR
19:45 13.3 °F 2.6 °F 1028.0 in NW 20.4 mph 20.4 mph 48 % 0.0 in 0.0 W/m2 CLR
19:46 13.3 °F 2.6 °F 1028.0 in WNW 27.8 mph 27.8 mph 48 % 0.0 in 0.0 W/m2 CLR
19:50 13.3 °F 2.6 °F 1028.0 in NW 35.2 mph 35.2 mph 48 % 0.0 in 0.0 W/m2 CLR
19:52 13.3 °F 2.6 °F 1028.0 in NW 31.5 mph 31.5 mph 48 % 0.0 in 0.0 W/m2 CLR
19:57 13.9 °F 3.1 °F 1028.0 in NW 20.9 mph 20.9 mph 48 % 0.0 in 0.0 W/m2 CLR
20:02 13.3 °F 2.6 °F 1028.0 in WNW 33.3 mph 33.3 mph 48 % 0.0 in 0.0 W/m2 CLR
20:03 13.3 °F 2.6 °F 1028.0 in WNW 29.6 mph 29.6 mph 48 % 0.0 in 0.0 W/m2 CLR
20:07 13.3 °F 2.6 °F 1028.0 in WNW 29.6 mph 29.6 mph 48 % 0.0 in 0.0 W/m2 CLR
20:12 13.3 °F 2.6 °F 1028.0 in WNW 27.8 mph 27.8 mph 48 % 0.0 in 0.0 W/m2 CLR
20:17 13.3 °F 2.8 °F 1028.0 in NW 33.3 mph 33.3 mph 49 % 0.0 in 0.0 W/m2 CLR
20:18 13.3 °F 2.8 °F 1028.3 in WNW 31.5 mph 31.5 mph 49 % 0.0 in 0.0 W/m2 CLR
20:20 13.3 °F 2.8 °F 1028.3 in NW 27.8 mph 27.8 mph 49 % 0.0 in 0.0 W/m2 CLR
20:25 13.3 °F 2.8 °F 1028.3 in WNW 37.0 mph 37.0 mph 49 % 0.0 in 0.0 W/m2 CLR
20:26 13.3 °F 2.8 °F 1028.0 in NW 37.0 mph 37.0 mph 49 % 0.0 in 0.0 W/m2 CLR
20:28 13.3 °F 2.8 °F 1028.3 in NW 22.2 mph 22.2 mph 49 % 0.0 in 0.0 W/m2 CLR
20:33 13.3 °F 3.1 °F 1028.3 in NW 33.8 mph 33.8 mph 50 % 0.0 in 0.0 W/m2 CLR
20:34 13.3 °F 3.1 °F 1028.3 in WNW 33.3 mph 33.3 mph 50 % 0.0 in 0.0 W/m2 CLR
20:37 13.3 °F 3.1 °F 1028.3 in WNW 31.5 mph 31.5 mph 50 % 0.0 in 0.0 W/m2 CLR
20:39 13.3 °F 3.1 °F 1028.3 in WNW 27.8 mph 27.8 mph 50 % 0.0 in 0.0 W/m2 CLR
20:42 13.3 °F 3.1 °F 1028.3 in NW 31.5 mph 31.5 mph 50 % 0.0 in 0.0 W/m2 CLR
20:44 13.3 °F 3.1 °F 1028.3 in WNW 31.5 mph 31.5 mph 50 % 0.0 in 0.0 W/m2 CLR
20:49 13.3 °F 3.1 °F 1028.3 in NW 29.6 mph 29.6 mph 50 % 0.0 in 0.0 W/m2 CLR
20:51 13.3 °F 3.1 °F 1028.3 in WNW 22.2 mph 22.2 mph 50 % 0.0 in 0.0 W/m2 CLR
20:56 13.3 °F 3.1 °F 1028.7 in NW 29.6 mph 29.6 mph 50 % 0.0 in 0.0 W/m2 CLR
20:57 13.3 °F 3.1 °F 1028.7 in NW 25.7 mph 25.7 mph 50 % 0.0 in 0.0 W/m2 CLR
21:02 13.3 °F 3.4 °F 1028.3 in WNW 24.1 mph 24.1 mph 51 % 0.0 in 0.0 W/m2 CLR
21:06 13.3 °F 3.4 °F 1028.7 in WNW 27.8 mph 27.8 mph 51 % 0.0 in 0.0 W/m2 CLR
21:08 13.3 °F 3.4 °F 1028.7 in West 20.4 mph 20.4 mph 51 % 0.0 in 0.0 W/m2 CLR
21:12 13.3 °F 3.4 °F 1028.7 in WNW 24.1 mph 24.1 mph 51 % 0.0 in 0.0 W/m2 CLR
21:14 13.3 °F 3.4 °F 1029.0 in WNW 20.4 mph 20.4 mph 51 % 0.0 in 0.0 W/m2 CLR
21:19 13.3 °F 3.4 °F 1029.0 in WNW 18.5 mph 18.5 mph 51 % 0.0 in 0.0 W/m2 CLR
21:20 13.3 °F 3.4 °F 1029.0 in NW 19.3 mph 19.3 mph 51 % 0.0 in 0.0 W/m2 CLR
21:21 13.3 °F 3.4 °F 1029.0 in NW 20.4 mph 20.4 mph 51 % 0.0 in 0.0 W/m2 CLR
21:25 13.3 °F 3.7 °F 1029.0 in West 31.5 mph 31.5 mph 52 % 0.0 in 0.0 W/m2 CLR
21:26 13.3 °F 3.7 °F 1029.0 in NW 22.2 mph 22.2 mph 52 % 0.0 in 0.0 W/m2 CLR
21:31 13.3 °F 3.9 °F 1029.0 in NW 27.8 mph 27.8 mph 53 % 0.0 in 0.0 W/m2 CLR
21:33 13.3 °F 3.7 °F 1029.0 in NW 27.8 mph 27.8 mph 52 % 0.0 in 0.0 W/m2 CLR
21:38 13.3 °F 3.9 °F 1029.3 in NW 24.1 mph 24.1 mph 53 % 0.0 in 0.0 W/m2 CLR
21:39 13.3 °F 3.9 °F 1029.3 in NW 29.6 mph 29.6 mph 53 % 0.0 in 0.0 W/m2 CLR
21:40 13.3 °F 4.2 °F 1029.3 in NW 31.5 mph 31.5 mph 54 % 0.0 in 0.0 W/m2 CLR
21:45 13.3 °F 4.2 °F 1029.3 in NNW 27.4 mph 27.4 mph 54 % 0.0 in 0.0 W/m2 CLR
21:50 13.3 °F 4.2 °F 1029.3 in NW 29.0 mph 29.0 mph 54 % 0.0 in 0.0 W/m2 CLR
21:52 13.3 °F 4.2 °F 1029.3 in NW 31.5 mph 31.5 mph 54 % 0.0 in 0.0 W/m2 CLR
21:54 13.3 °F 4.2 °F 1029.3 in NW 24.1 mph 24.1 mph 54 % 0.0 in 0.0 W/m2 CLR
21:59 13.3 °F 4.5 °F 1029.0 in NW 31.5 mph 31.5 mph 55 % 0.0 in 0.0 W/m2 CLR
22:00 13.3 °F 4.5 °F 1029.0 in NW 33.3 mph 33.3 mph 55 % 0.0 in 0.0 W/m2 CLR
22:05 13.3 °F 4.5 °F 1029.0 in NW 33.3 mph 33.3 mph 55 % 0.0 in 0.0 W/m2 CLR
22:08 13.3 °F 4.5 °F 1029.0 in NW 33.3 mph 33.3 mph 55 % 0.0 in 0.0 W/m2 CLR
22:13 13.3 °F 4.7 °F 1029.0 in WNW 33.8 mph 33.8 mph 56 % 0.0 in 0.0 W/m2 CLR
22:14 13.3 °F 4.7 °F 1029.0 in NW 42.6 mph 42.6 mph 56 % 0.0 in 0.0 W/m2 CLR
22:17 13.3 °F 4.7 °F 1029.3 in NNW 35.2 mph 35.2 mph 56 % 0.0 in 0.0 W/m2 CLR
22:22 13.3 °F 4.7 °F 1029.3 in WNW 27.4 mph 27.4 mph 56 % 0.0 in 0.0 W/m2 CLR
22:24 13.3 °F 4.7 °F 1029.3 in NW 27.8 mph 27.8 mph 56 % 0.0 in 0.0 W/m2 CLR
22:29 12.8 °F 4.2 °F 1029.3 in NW 37.0 mph 37.0 mph 56 % 0.0 in 0.0 W/m2 CLR
22:32 12.8 °F 4.2 °F 1029.0 in NW 24.1 mph 24.1 mph 56 % 0.0 in 0.0 W/m2 CLR
22:33 12.8 °F 4.2 °F 1029.0 in WNW 22.5 mph 22.5 mph 56 % 0.0 in 0.0 W/m2 CLR
22:38 12.8 °F 4.2 °F 1029.3 in NW 30.6 mph 30.6 mph 56 % 0.0 in 0.0 W/m2 CLR
22:39 12.8 °F 4.2 °F 1029.3 in NW 31.5 mph 31.5 mph 56 % 0.0 in 0.0 W/m2 CLR
22:44 12.8 °F 4.2 °F 1029.3 in NW 31.5 mph 31.5 mph 56 % 0.0 in 0.0 W/m2 CLR
22:45 12.8 °F 4.2 °F 1029.0 in NW 31.5 mph 31.5 mph 56 % 0.0 in 0.0 W/m2 CLR
22:47 12.8 °F 4.2 °F 1029.0 in NW 31.5 mph 31.5 mph 56 % 0.0 in 0.0 W/m2 CLR
22:52 13.3 °F 4.7 °F 1029.3 in NW 33.8 mph 33.8 mph 56 % 0.0 in 0.0 W/m2 CLR
22:54 13.3 °F 4.7 °F 1029.3 in NW 29.6 mph 29.6 mph 56 % 0.0 in 0.0 W/m2 CLR
22:57 13.3 °F 5.0 °F 1029.3 in NW 25.9 mph 25.9 mph 57 % 0.0 in 0.0 W/m2 CLR
23:01 13.3 °F 5.0 °F 1029.3 in NW 27.4 mph 27.4 mph 57 % 0.0 in 0.0 W/m2 CLR
23:03 13.3 °F 5.0 °F 1029.3 in NW 25.9 mph 25.9 mph 57 % 0.0 in 0.0 W/m2 CLR
23:08 12.8 °F 4.7 °F 1029.7 in NNW 29.6 mph 29.6 mph 58 % 0.0 in 0.0 W/m2 CLR
23:13 12.8 °F 5.2 °F 1030.0 in NNW 25.9 mph 25.9 mph 60 % 0.0 in 0.0 W/m2 CLR
23:14 12.8 °F 5.2 °F 1029.7 in NW 27.8 mph 27.8 mph 60 % 0.0 in 0.0 W/m2 CLR
23:15 12.8 °F 5.2 °F 1030.0 in NW 27.8 mph 27.8 mph 60 % 0.0 in 0.0 W/m2 CLR
23:20 12.8 °F 5.9 °F 1030.0 in NNW 31.5 mph 31.5 mph 63 % 0.0 in 0.0 W/m2 CLR
23:21 12.8 °F 6.1 °F 1030.0 in NW 24.1 mph 24.1 mph 64 % 0.0 in 0.0 W/m2 CLR
23:26 12.2 °F 5.8 °F 1030.0 in North 18.5 mph 18.5 mph 65 % 0.0 in 0.0 W/m2 CLR
23:31 11.7 °F 5.3 °F 1030.0 in NNW 20.4 mph 20.4 mph 65 % 0.0 in 0.0 W/m2 CLR
23:32 11.7 °F 5.3 °F 1030.0 in NNW 18.5 mph 18.5 mph 65 % 0.0 in 0.0 W/m2 CLR
23:33 11.7 °F 5.3 °F 1030.0 in NNW 18.5 mph 18.5 mph 65 % 0.0 in 0.0 W/m2 CLR
23:37 11.7 °F 5.3 °F 1030.0 in NW 18.5 mph 18.5 mph 65 % 0.0 in 0.0 W/m2 CLR
23:39 11.7 °F 5.3 °F 1030.0 in NNW 16.7 mph 16.7 mph 65 % 0.0 in 0.0 W/m2 CLR
23:44 11.1 °F 4.8 °F 1030.0 in NNW 18.5 mph 18.5 mph 65 % 0.0 in 0.0 W/m2 CLR
23:46 11.1 °F 4.8 °F 1030.0 in NNW 18.5 mph 18.5 mph 65 % 0.0 in 0.0 W/m2 CLR
23:51 11.1 °F 5.0 °F 1030.0 in North 18.5 mph 18.5 mph 66 % 0.0 in 0.0 W/m2 CLR
23:53 11.1 °F 5.0 °F 1030.0 in NNW 16.7 mph 16.7 mph 66 % 0.0 in 0.0 W/m2 CLR
23:58 11.1 °F 5.0 °F 1030.0 in North 18.5 mph 18.5 mph 66 % 0.0 in 0.0 W/m2 CLR
Lo Temps de Massalio
Compliments of Weather Underground - 1.75 mb